ソフィア の空港の天気 - METARとTAF

ソフィア空港 ( LBSF / SOF ) - ブルガリア ソフィア
飛行場実況気象(Metar)
観測時間08/14 00:00 EEST (08/13 21:00 UTC)
風向・風速静穏 0m/s
視程6000m
天気現象
少しの雲 雲底高度 60m
気温16℃
湿度100%
気圧1012hPa
METARLBSF 132100Z AUTO 00000KT 6000 FEW002/// 16/16 Q1012 TEMPO 2000 BR SCT002 BKN005
過去の天気等 Google飛行場航空写真 Wunderground天気予報

過去48時間のMETAR

飛行場予報(TAF)
発表時間: 8/13 20:00 EEST (8/13 17:00 UTC)
予報対象時間: 13日21時 EEST ~ 14日21時 EEST
風向・風速不定 2m/s
視程10km以上
全天の4割程度の雲 雲底高度 1220m
全天の8割程度の雲 雲底高度 1830m
13日21時 EEST ~ 13日23時 EEST に 確率 30% で一時的に
天気現象雷雨
少しの積乱雲 雲底高度 1220m
14日2時 EEST ~ 14日6時 EEST に一時的に
視程3000m
天気現象しゅう雨
少しの積乱雲 雲底高度 910m
全天を覆う雲 雲底高度 1220m
14日6時 EEST ~ 14日21時 EEST に一時的に
視程3000m
天気現象雷雨
全天の4割程度の積乱雲 雲底高度 910m
全天を覆う雲 雲底高度 1220m
14日8時 EEST から 確率 30% で
風向・風速不定 9m/s 瞬間風速 15m/s
視程1500m
天気現象強い雷雨
全天の4割程度の積乱雲 雲底高度 610m
全天を覆う雲 雲底高度 910m
TAF LBSF 131700Z 1318/1418 VRB04KT 9999 SCT040 BKN060
PROB30 TEMPO 1318/1320 TSRA FEW040CB
TEMPO 1323/1403 3000 SHRA FEW030CB OVC040
TEMPO 1403/1418 3000 TSRA SCT030CB OVC040
PROB30 1405/1413 VRB18G30KT 1500 +TSRA SCT020CB OVC030